Time;durP1;ratioP1;P1;durP2;ratioP2;P2;SDS_P1;SDS_P2;PMS_P1;PMS_P2;Temp;Humidity;BMP_temperature;BMP_pressure;BME280_temperature;BME280_humidity;BME280_pressure;Samples;Min_cycle;Max_cycle;Signal;HPM_P1;HPM_P2
2023/04/08 00:00:48;;;;;;;23.58;13.75;;;;;;;7.60;100.00;102182.84;5039858;28;20033;-59
2023/04/08 00:03:14;;;;;;;25.80;13.90;;;;;;;7.60;100.00;102188.97;5047106;28;20029;-60
2023/04/08 00:05:39;;;;;;;22.45;13.77;;;;;;;7.63;100.00;102181.81;5044664;28;20026;-59
2023/04/08 00:08:05;;;;;;;25.05;14.30;;;;;;;7.63;100.00;102184.47;5047458;28;20025;-59
2023/04/08 00:10:30;;;;;;;26.85;13.73;;;;;;;7.63;100.00;102182.72;5044774;28;20053;-60
2023/04/08 00:12:56;;;;;;;19.90;13.10;;;;;;;7.65;100.00;102187.94;5047942;28;20021;-60
2023/04/08 00:15:21;;;;;;;27.60;13.75;;;;;;;7.66;100.00;102179.94;5045728;28;20037;-60
2023/04/08 00:17:46;;;;;;;24.50;14.25;;;;;;;7.66;100.00;102177.28;5047925;28;20090;-60
2023/04/08 00:20:11;;;;;;;23.10;14.27;;;;;;;7.66;100.00;102179.94;5047771;28;20509;-60
2023/04/08 00:22:37;;;;;;;20.05;13.68;;;;;;;7.66;100.00;102174.66;5046300;28;20036;-60
2023/04/08 00:25:05;;;;;;;22.90;14.27;;;;;;;7.66;100.00;102179.06;5037782;28;20033;-60
2023/04/08 00:27:31;;;;;;;21.77;13.52;;;;;;;7.65;100.00;102185.28;5047350;28;20116;-60
2023/04/08 00:29:56;;;;;;;27.08;15.45;;;;;;;7.65;100.00;102180.84;5048744;28;20397;-60
2023/04/08 00:32:21;;;;;;;25.70;14.35;;;;;;;7.63;100.00;102180.06;5037153;28;20437;-59
2023/04/08 00:34:47;;;;;;;25.40;15.90;;;;;;;7.65;100.00;102180.00;5034054;28;20026;-59
2023/04/08 00:37:12;;;;;;;25.55;16.40;;;;;;;7.65;100.00;102178.19;5041504;28;20484;-60
2023/04/08 00:39:37;;;;;;;22.90;15.88;;;;;;;7.65;100.00;102180.00;5036043;28;20449;-60
2023/04/08 00:42:02;;;;;;;31.20;16.38;;;;;;;7.63;100.00;102182.72;5040697;28;20029;-59
2023/04/08 00:44:28;;;;;;;27.52;17.02;;;;;;;7.65;100.00;102177.34;5018312;28;20418;-60
2023/04/08 00:46:54;;;;;;;29.90;18.05;;;;;;;7.63;100.00;102187.13;5043347;28;20036;-59
2023/04/08 00:49:19;;;;;;;32.53;19.10;;;;;;;7.63;100.00;102185.34;5032812;28;20022;-61
2023/04/08 00:51:45;;;;;;;33.42;19.08;;;;;;;7.64;100.00;102186.19;5043805;28;20039;-60
2023/04/08 00:54:10;;;;;;;28.83;18.55;;;;;;;7.64;100.00;102191.50;5028214;28;20026;-60
2023/04/08 00:56:36;;;;;;;33.67;19.23;;;;;;;7.64;100.00;102183.56;5043003;28;20040;-59
2023/04/08 00:59:02;;;;;;;32.15;19.20;;;;;;;7.64;100.00;102192.34;5047714;28;20104;-59
2023/04/08 01:01:41;;;;;;;33.92;19.92;;;;;;;7.66;100.00;102192.28;5047599;28;20043;-60
2023/04/08 01:04:43;;;;;;;33.78;20.80;;;;;;;7.67;100.00;102191.38;5046745;28;20038;-59
2023/04/08 01:07:14;;;;;;;37.17;21.02;;;;;;;7.65;100.00;102194.06;5026410;28;20045;-60
2023/04/08 01:09:45;;;;;;;37.13;20.52;;;;;;;7.65;100.00;102196.72;5032278;28;20052;-59
2023/04/08 01:12:17;;;;;;;40.38;22.33;;;;;;;7.64;100.00;102196.78;5029317;28;20022;-59
2023/04/08 01:14:45;;;;;;;34.22;21.80;;;;;;;7.65;100.00;102194.06;5036819;28;20041;-58
2023/04/08 01:17:11;;;;;;;39.63;22.13;;;;;;;7.66;100.00;102190.50;5029018;28;20562;-58
2023/04/08 01:19:40;;;;;;;33.13;22.45;;;;;;;7.64;100.00;102194.13;5026110;28;20104;-60
2023/04/08 01:22:36;;;;;;;33.00;21.63;;;;;;;7.67;100.00;102191.38;5033356;28;20113;-59
2023/04/08 01:25:09;;;;;;;34.45;23.02;;;;;;;7.67;100.00;102188.72;5025376;28;20112;-58
2023/04/08 01:27:36;;;;;;;37.25;23.08;;;;;;;7.67;100.00;102194.00;5034341;28;20029;-60
2023/04/08 01:30:04;;;;;;;42.38;24.40;;;;;;;7.66;100.00;102200.22;5031261;28;20040;-60
2023/04/08 01:32:32;;;;;;;45.22;25.02;;;;;;;7.66;100.00;102194.91;5029090;28;20021;-60
2023/04/08 01:34:58;;;;;;;44.53;24.10;;;;;;;7.66;100.00;102198.44;5027662;28;20053;-59
2023/04/08 01:37:26;;;;;;;47.92;26.20;;;;;;;7.65;100.00;102202.00;5031893;28;20026;-60
2023/04/08 01:39:54;;;;;;;43.25;25.33;;;;;;;7.66;100.00;102208.13;5031963;28;20037;-60
2023/04/08 01:42:22;;;;;;;41.50;24.30;;;;;;;7.66;100.00;102201.09;5033559;28;20029;-59
2023/04/08 01:44:49;;;;;;;43.83;24.60;;;;;;;7.67;100.00;102201.94;5017467;28;20034;-60
2023/04/08 01:47:15;;;;;;;41.60;25.10;;;;;;;7.67;100.00;102209.88;5031216;28;20029;-60
2023/04/08 01:49:42;;;;;;;42.80;25.00;;;;;;;7.67;100.00;102207.22;5019957;28;20108;-60
2023/04/08 01:52:09;;;;;;;37.95;24.90;;;;;;;7.66;100.00;102198.44;5031331;28;20120;-59
2023/04/08 01:54:35;;;;;;;49.83;25.73;;;;;;;7.68;100.00;102203.66;5035537;28;20072;-59
2023/04/08 01:57:05;;;;;;;42.75;25.13;;;;;;;7.67;100.00;102199.28;5031648;28;20026;-60
2023/04/08 01:59:34;;;;;;;43.17;24.75;;;;;;;7.67;100.00;102205.44;5043069;28;20025;-60
2023/04/08 02:02:01;;;;;;;43.08;24.73;;;;;;;7.67;100.00;102202.78;5049435;28;20485;-60
2023/04/08 02:04:26;;;;;;;41.40;25.40;;;;;;;7.68;100.00;102208.97;5042746;28;20476;-61
2023/04/08 02:06:52;;;;;;;40.72;26.88;;;;;;;7.67;100.00;102200.16;5048938;28;20057;-62
2023/04/08 02:09:17;;;;;;;40.78;25.73;;;;;;;7.67;100.00;102205.44;5045923;28;20026;-62
2023/04/08 02:11:42;;;;;;;43.30;27.27;;;;;;;7.68;100.00;102207.16;5050029;28;20041;-60
2023/04/08 02:14:08;;;;;;;41.25;25.50;;;;;;;7.68;100.00;102204.53;5041367;28;20029;-64
2023/04/08 02:16:41;;;;;;;41.55;27.50;;;;;;;7.68;100.00;102198.38;5051703;28;20044;-64
2023/04/08 02:19:15;;;;;;;43.67;27.45;;;;;;;7.68;100.00;102208.97;5045360;28;20056;-63
2023/04/08 02:21:56;;;;;;;41.00;25.90;;;;;;;7.69;100.00;102203.56;5044757;28;20112;-63
2023/04/08 02:24:21;;;;;;;43.08;26.48;;;;;;;7.67;100.00;102204.59;5041535;28;20041;-63
2023/04/08 02:26:49;;;;;;;35.40;24.70;;;;;;;7.68;100.00;102204.53;5033028;28;20429;-63
2023/04/08 02:29:16;;;;;;;41.30;27.42;;;;;;;7.66;100.00;102202.84;5022872;28;20095;-63
2023/04/08 02:31:42;;;;;;;41.00;26.65;;;;;;;7.65;100.00;102214.38;5020998;28;20585;-63
2023/04/08 02:34:09;;;;;;;40.38;26.30;;;;;;;7.66;100.00;102214.31;5022358;28;20065;-63
2023/04/08 02:36:36;;;;;;;41.78;26.75;;;;;;;7.68;100.00;102211.59;5028316;28;20025;-65
2023/04/08 02:39:02;;;;;;;39.17;26.70;;;;;;;7.67;100.00;102209.88;5024390;28;20026;-64
2023/04/08 02:41:29;;;;;;;41.00;26.92;;;;;;;7.68;100.00;102217.75;5039479;28;20032;-64
2023/04/08 02:43:54;;;;;;;46.65;27.40;;;;;;;7.69;100.00;102219.44;5034522;28;20032;-64
2023/04/08 02:46:20;;;;;;;40.10;27.67;;;;;;;7.68;100.00;102217.75;5034089;28;20057;-64
2023/04/08 02:48:45;;;;;;;44.25;28.65;;;;;;;7.68;100.00;102215.09;5029829;28;20033;-64
2023/04/08 02:51:10;;;;;;;39.38;27.85;;;;;;;7.67;100.00;102213.38;5039816;28;20382;-63
2023/04/08 02:53:35;;;;;;;40.20;26.65;;;;;;;7.66;100.00;102216.97;5046036;28;20017;-63
2023/04/08 02:56:01;;;;;;;37.92;26.10;;;;;;;7.68;100.00;102219.53;5040204;28;20075;-63
2023/04/08 02:58:26;;;;;;;38.15;25.92;;;;;;;7.69;100.00;102224.72;5035058;28;20032;-61
2023/04/08 03:00:51;;;;;;;43.88;27.13;;;;;;;7.67;100.00;102221.31;5037666;28;20033;-63
2023/04/08 03:03:17;;;;;;;43.03;28.10;;;;;;;7.68;100.00;102222.19;5042695;28;20100;-63
2023/04/08 03:05:42;;;;;;;43.17;26.73;;;;;;;7.69;100.00;102229.19;5024624;28;20029;-63
2023/04/08 03:08:07;;;;;;;42.75;27.40;;;;;;;7.67;100.00;102223.94;5041649;28;20025;-63
2023/04/08 03:10:32;;;;;;;44.72;28.08;;;;;;;7.68;100.00;102227.47;5047820;28;20053;-63
2023/04/08 03:12:58;;;;;;;40.25;26.73;;;;;;;7.69;100.00;102229.19;5046746;28;20078;-63
2023/04/08 03:15:23;;;;;;;42.22;26.45;;;;;;;7.71;100.00;102229.97;5045148;28;20032;-63
2023/04/08 03:17:48;;;;;;;41.70;26.92;;;;;;;7.68;100.00;102225.69;5047843;28;20036;-63
2023/04/08 03:20:14;;;;;;;38.03;27.17;;;;;;;7.68;100.00;102230.97;5033580;28;20024;-63
2023/04/08 03:22:39;;;;;;;39.88;26.88;;;;;;;7.70;100.00;102233.56;5031141;28;20021;-62
2023/04/08 03:25:05;;;;;;;42.78;27.85;;;;;;;7.67;100.00;102231.03;5039355;28;20031;-62
2023/04/08 03:27:30;;;;;;;36.92;27.17;;;;;;;7.67;100.00;102228.38;5033760;28;20038;-62
2023/04/08 03:29:56;;;;;;;41.42;25.80;;;;;;;7.67;100.00;102225.75;5042489;28;20493;-62
2023/04/08 03:32:22;;;;;;;39.42;27.05;;;;;;;7.66;100.00;102229.31;5031894;28;20057;-62
2023/04/08 03:34:49;;;;;;;39.78;28.08;;;;;;;7.66;100.00;102224.00;5040340;28;20068;-62
2023/04/08 03:37:15;;;;;;;42.55;27.95;;;;;;;7.63;100.00;102224.13;5036662;28;20427;-62
2023/04/08 03:39:41;;;;;;;37.20;26.55;;;;;;;7.63;100.00;102232.06;5020488;28;20100;-62
2023/04/08 03:42:06;;;;;;;41.50;28.10;;;;;;;7.62;100.00;102225.06;5035318;28;20520;-63
2023/04/08 03:44:31;;;;;;;38.53;27.50;;;;;;;7.63;100.00;102230.31;5043901;28;20036;-63
2023/04/08 03:46:57;;;;;;;38.60;28.90;;;;;;;7.64;100.00;102228.50;5043594;28;20508;-63
2023/04/08 03:49:22;;;;;;;42.30;29.38;;;;;;;7.63;100.00;102225.00;5046801;28;20029;-63
2023/04/08 03:51:49;;;;;;;52.42;29.80;;;;;;;7.62;100.00;102222.44;5049985;28;20025;-63
2023/04/08 03:54:14;;;;;;;38.53;28.92;;;;;;;7.63;100.00;102230.31;5046946;28;20025;-62
2023/04/08 03:56:39;;;;;;;42.88;30.02;;;;;;;7.63;100.00;102226.78;5036589;28;20467;-62
2023/04/08 03:59:05;;;;;;;46.22;30.33;;;;;;;7.61;100.00;102237.44;5043326;28;20103;-62
2023/04/08 04:01:31;;;;;;;47.72;31.33;;;;;;;7.62;100.00;102233.84;5036835;28;20045;-62
2023/04/08 04:03:56;;;;;;;50.05;31.25;;;;;;;7.61;100.00;102229.50;5042056;28;20032;-62
2023/04/08 04:06:21;;;;;;;54.55;31.63;;;;;;;7.61;100.00;102234.81;5043289;28;20033;-62
2023/04/08 04:08:47;;;;;;;56.70;32.83;;;;;;;7.60;100.00;102235.72;5041630;28;20029;-62
2023/04/08 04:11:12;;;;;;;54.30;33.08;;;;;;;7.60;100.00;102235.72;5029827;28;20041;-62
2023/04/08 04:13:37;;;;;;;55.17;31.83;;;;;;;7.59;100.00;102234.88;5037658;28;20030;-62
2023/04/08 04:16:03;;;;;;;49.47;32.15;;;;;;;7.59;100.00;102236.63;5038366;28;20447;-63
2023/04/08 04:18:28;;;;;;;49.67;33.45;;;;;;;7.59;100.00;102236.63;5042928;28;20100;-62
2023/04/08 04:20:54;;;;;;;54.47;32.53;;;;;;;7.60;100.00;102244.50;5046414;28;20032;-62
2023/04/08 04:23:19;;;;;;;56.25;33.40;;;;;;;7.60;100.00;102244.50;5026703;28;20033;-62
2023/04/08 04:25:45;;;;;;;52.97;33.90;;;;;;;7.60;100.00;102241.84;5033723;28;20064;-62
2023/04/08 04:28:10;;;;;;;58.70;33.78;;;;;;;7.61;100.00;102250.66;5032151;28;20220;-62
2023/04/08 04:30:39;;;;;;;56.45;33.88;;;;;;;7.62;100.00;102251.53;5044312;28;20028;-62
2023/04/08 04:33:06;;;;;;;56.58;35.08;;;;;;;7.61;100.00;102255.97;5040817;28;20098;-62
2023/04/08 04:35:31;;;;;;;64.78;34.75;;;;;;;7.63;100.00;102262.03;5039688;28;20069;-62
2023/04/08 04:37:57;;;;;;;66.38;35.72;;;;;;;7.64;100.00;102263.75;5031984;28;20391;-62
2023/04/08 04:40:22;;;;;;;62.58;35.83;;;;;;;7.65;100.00;102260.19;5034552;28;20337;-62
2023/04/08 04:42:47;;;;;;;68.20;35.97;;;;;;;7.64;100.00;102258.44;5034200;28;20029;-62
2023/04/08 04:45:13;;;;;;;64.57;36.47;;;;;;;7.65;100.00;102256.69;5029780;28;20371;-62
2023/04/08 04:47:38;;;;;;;70.43;35.97;;;;;;;7.67;100.00;102270.69;5033105;28;20044;-62
2023/04/08 04:50:04;;;;;;;66.90;35.75;;;;;;;7.66;100.00;102275.13;5030837;28;20048;-62
2023/04/08 04:52:30;;;;;;;72.93;36.72;;;;;;;7.66;100.00;102271.59;5041231;28;20298;-62
2023/04/08 04:54:56;;;;;;;74.38;38.28;;;;;;;7.66;100.00;102275.13;5045506;28;20378;-62
2023/04/08 04:57:22;;;;;;;83.72;39.38;;;;;;;7.67;100.00;102271.53;5039065;28;20471;-62
2023/04/08 04:59:47;;;;;;;74.60;38.55;;;;;;;7.68;100.00;102283.00;5047753;28;20027;-62
2023/04/08 05:02:12;;;;;;;64.93;37.20;;;;;;;7.68;100.00;102280.38;5044171;28;20104;-62
2023/04/08 05:04:38;;;;;;;80.82;40.05;;;;;;;7.69;100.00;102284.72;5045463;28;20108;-62
2023/04/08 05:07:03;;;;;;;84.10;38.63;;;;;;;7.67;100.00;102279.47;5043614;28;20281;-62
2023/04/08 05:09:29;;;;;;;72.88;37.53;;;;;;;7.68;100.00;102285.66;5047254;28;20104;-62
2023/04/08 05:11:55;;;;;;;69.35;36.05;;;;;;;7.65;100.00;102289.28;5042536;28;20390;-62
2023/04/08 05:14:20;;;;;;;64.22;35.67;;;;;;;7.68;100.00;102290.94;5031463;28;20069;-62
2023/04/08 05:16:45;;;;;;;65.88;34.58;;;;;;;7.67;100.00;102290.06;5035873;28;20509;-62
2023/04/08 05:19:11;;;;;;;59.97;33.22;;;;;;;7.67;100.00;102295.34;5039097;28;20060;-61
2023/04/08 05:21:36;;;;;;;58.35;33.10;;;;;;;7.68;100.00;102296.22;5034544;28;20038;-62
2023/04/08 05:24:01;;;;;;;52.42;31.55;;;;;;;7.67;100.00;102292.69;5047273;28;20029;-62
2023/04/08 05:26:26;;;;;;;55.05;32.45;;;;;;;7.67;100.00;102299.78;5041774;28;20498;-62
2023/04/08 05:28:52;;;;;;;49.10;31.42;;;;;;;7.69;100.00;102297.94;5042633;28;20044;-62
2023/04/08 05:31:18;;;;;;;54.58;31.73;;;;;;;7.69;100.00;102305.88;5041974;28;20060;-61
2023/04/08 05:33:43;;;;;;;48.60;29.98;;;;;;;7.68;100.00;102299.72;5034715;28;20033;-62
2023/04/08 05:36:12;;;;;;;46.35;29.83;;;;;;;7.69;100.00;102304.06;5035606;28;20017;-62
2023/04/08 05:38:38;;;;;;;47.83;30.52;;;;;;;7.69;100.00;102304.06;5028487;28;20029;-62
2023/04/08 05:41:04;;;;;;;46.97;28.58;;;;;;;7.68;100.00;102312.94;5043038;28;20025;-62
2023/04/08 05:43:31;;;;;;;53.92;30.77;;;;;;;7.68;100.00;102306.81;5035160;28;20052;-62
2023/04/08 05:45:56;;;;;;;48.45;30.83;;;;;;;7.68;100.00;102306.81;5030331;28;20098;-61
2023/04/08 05:48:21;;;;;;;46.42;30.35;;;;;;;7.69;100.00;102312.00;5037376;28;20025;-62
2023/04/08 05:50:47;;;;;;;50.17;29.17;;;;;;;7.71;100.00;102314.59;5016979;28;20360;-62
2023/04/08 05:53:13;;;;;;;43.67;28.67;;;;;;;7.71;100.00;102314.59;5032580;28;20116;-59
2023/04/08 05:55:39;;;;;;;47.78;28.95;;;;;;;7.72;100.00;102321.63;5033931;28;20045;-56
2023/04/08 05:58:04;;;;;;;52.80;29.58;;;;;;;7.73;100.00;102323.34;5019377;28;20044;-60
2023/04/08 06:00:29;;;;;;;43.70;28.30;;;;;;;7.75;100.00;102322.34;5015951;28;20471;-57
2023/04/08 06:02:55;;;;;;;41.25;27.80;;;;;;;7.75;100.00;102324.13;5028872;28;20022;-58
2023/04/08 06:05:20;;;;;;;43.78;28.50;;;;;;;7.75;100.00;102319.69;5019360;28;20054;-60
2023/04/08 06:07:46;;;;;;;44.90;30.02;;;;;;;7.75;100.00;102327.63;5030767;28;20091;-59
2023/04/08 06:10:11;;;;;;;40.45;28.60;;;;;;;7.76;100.00;102325.84;5033623;28;20056;-59
2023/04/08 06:12:39;;;;;;;42.38;28.42;;;;;;;7.77;100.00;102328.41;5036767;28;20110;-59
2023/04/08 06:15:06;;;;;;;37.05;27.23;;;;;;;7.80;100.00;102330.09;5030054;28;20076;-60
2023/04/08 06:17:31;;;;;;;45.20;29.25;;;;;;;7.82;100.00;102330.03;5025845;28;20111;-60
2023/04/08 06:19:57;;;;;;;47.25;29.45;;;;;;;7.84;100.00;102338.75;5030617;28;20104;-60
2023/04/08 06:22:22;;;;;;;41.78;28.50;;;;;;;7.85;100.00;102335.22;5032602;28;20143;-61
2023/04/08 06:24:47;;;;;;;36.17;26.20;;;;;;;7.87;100.00;102341.28;5028534;28;20025;-60
2023/04/08 06:27:13;;;;;;;43.88;30.23;;;;;;;7.87;100.00;102347.44;5021201;28;20033;-60
2023/04/08 06:29:38;;;;;;;43.60;26.90;;;;;;;7.90;100.00;102349.94;5036588;28;20032;-60
2023/04/08 06:32:05;;;;;;;34.45;24.10;;;;;;;7.90;100.00;102357.88;5023040;28;20041;-60
2023/04/08 06:34:30;;;;;;;29.20;20.92;;;;;;;7.91;100.00;102354.34;5033560;28;20033;-59
2023/04/08 06:36:56;;;;;;;28.77;20.23;;;;;;;7.92;100.00;102358.69;5035572;28;20458;-60
2023/04/08 06:39:21;;;;;;;36.97;26.00;;;;;;;7.95;100.00;102369.13;5029371;28;20025;-60
2023/04/08 06:41:47;;;;;;;36.50;25.88;;;;;;;7.96;100.00;102364.72;5044039;28;20061;-60
2023/04/08 06:44:12;;;;;;;35.17;26.10;;;;;;;8.01;100.00;102367.16;5031816;28;20659;-60
2023/04/08 06:46:37;;;;;;;39.40;28.05;;;;;;;8.03;100.00;102362.69;5037506;28;20528;-60
2023/04/08 06:49:03;;;;;;;39.30;25.50;;;;;;;8.05;100.00;102366.13;5026606;28;20042;-60
2023/04/08 06:51:28;;;;;;;34.42;24.83;;;;;;;8.07;100.00;102366.91;5031820;28;20482;-59
2023/04/08 06:53:54;;;;;;;34.53;25.02;;;;;;;8.11;100.00;102365.84;5031323;28;20030;-59
2023/04/08 06:56:21;;;;;;;39.10;27.25;;;;;;;8.13;100.00;102366.66;5035140;28;20107;-60
2023/04/08 06:58:46;;;;;;;36.53;25.45;;;;;;;8.16;100.00;102374.50;5040943;28;20032;-58
2023/04/08 07:01:12;;;;;;;37.15;25.58;;;;;;;8.20;100.00;102380.50;5029172;28;20124;-58
2023/04/08 07:03:37;;;;;;;30.45;23.25;;;;;;;8.20;100.00;102377.88;5042983;28;20029;-59
2023/04/08 07:06:03;;;;;;;27.75;21.58;;;;;;;8.22;100.00;102391.88;5036045;28;20060;-59
2023/04/08 07:08:28;;;;;;;26.80;20.73;;;;;;;8.24;100.00;102390.88;5028513;28;20026;-59
2023/04/08 07:10:53;;;;;;;27.33;20.63;;;;;;;8.25;100.00;102397.06;5036283;28;20076;-59
2023/04/08 07:13:19;;;;;;;28.73;21.70;;;;;;;8.28;100.00;102397.78;5034009;28;20029;-60
2023/04/08 07:15:44;;;;;;;27.83;20.88;;;;;;;8.34;100.00;102399.31;5034728;28;20072;-59
2023/04/08 07:18:11;;;;;;;30.30;22.15;;;;;;;8.37;100.00;102401.81;5030450;28;20043;-59
2023/04/08 07:20:37;;;;;;;30.95;22.23;;;;;;;8.39;100.00;102407.91;5031798;28;20454;-58
2023/04/08 07:23:02;;;;;;;27.40;21.92;;;;;;;8.38;100.00;102400.91;5032875;28;20026;-54
2023/04/08 07:25:28;;;;;;;27.38;20.52;;;;;;;8.37;100.00;102407.13;5033122;28;20064;-58
2023/04/08 07:27:53;;;;;;;26.50;21.17;;;;;;;8.40;100.00;102417.59;5028274;28;20030;-55
2023/04/08 07:30:18;;;;;;;26.80;21.38;;;;;;;8.44;100.00;102413.03;5045815;28;20500;-56
2023/04/08 07:32:44;;;;;;;28.33;21.80;;;;;;;8.47;100.00;102420.88;5038124;28;20053;-53
2023/04/08 07:35:09;;;;;;;32.38;23.10;;;;;;;8.50;100.00;102418.94;5031793;28;20434;-56
2023/04/08 07:37:35;;;;;;;31.67;22.13;;;;;;;8.57;100.00;102421.34;5024277;28;20398;-55
2023/04/08 07:40:00;;;;;;;29.50;23.08;;;;;;;8.61;100.00;102420.25;5022569;28;20025;-55
2023/04/08 07:42:26;;;;;;;28.50;22.95;;;;;;;8.64;100.00;102426.31;5025094;28;20033;-56
2023/04/08 07:44:51;;;;;;;28.25;22.20;;;;;;;8.65;100.00;102430.66;5030383;28;20030;-56
2023/04/08 07:47:16;;;;;;;28.15;22.02;;;;;;;8.69;100.00;102429.63;5023892;28;20021;-56
2023/04/08 07:49:44;;;;;;;31.77;22.60;;;;;;;8.72;100.00;102430.41;5013257;28;20597;-56
2023/04/08 07:52:10;;;;;;;28.70;22.15;;;;;;;8.71;100.00;102421.63;5019189;28;20119;-57
2023/04/08 07:54:35;;;;;;;29.75;22.23;;;;;;;8.76;100.00;102426.69;5032214;28;20057;-57
2023/04/08 07:57:01;;;;;;;26.83;22.25;;;;;;;8.81;100.00;102424.69;5016671;28;20022;-60
2023/04/08 07:59:26;;;;;;;25.50;20.50;;;;;;;8.81;100.00;102428.22;5027585;28;20023;-57
2023/04/08 08:01:51;;;;;;;25.50;20.83;;;;;;;8.84;100.00;102428.09;5032180;28;20021;-56
2023/04/08 08:04:17;;;;;;;25.80;19.95;;;;;;;8.86;100.00;102442.13;5028982;28;20017;-57
2023/04/08 08:06:42;;;;;;;26.08;20.65;;;;;;;8.89;100.00;102433.16;5030579;28;20035;-56
2023/04/08 08:09:08;;;;;;;24.95;20.60;;;;;;;8.86;100.00;102438.63;5030424;28;20500;-58
2023/04/08 08:11:33;;;;;;;24.98;20.20;;;;;;;8.88;100.00;102453.50;5031998;28;20111;-58
2023/04/08 08:13:59;;;;;;;24.60;20.88;;;;;;;8.94;100.00;102446.22;5032568;28;20486;-54
2023/04/08 08:16:27;;;;;;;26.98;22.33;;;;;;;8.94;100.00;102448.88;5027386;28;20503;-57
2023/04/08 08:18:53;;;;;;;28.33;23.08;;;;;;;8.97;100.00;102457.53;5019748;28;20026;-54
2023/04/08 08:21:18;;;;;;;26.38;21.38;;;;;;;8.97;100.00;102452.25;4996070;28;20034;-57
2023/04/08 08:23:43;;;;;;;25.33;21.42;;;;;;;9.04;100.00;102461.66;5029716;28;20482;-54
2023/04/08 08:26:09;;;;;;;25.20;21.25;;;;;;;9.07;100.00;102458.00;5026611;28;20022;-58
2023/04/08 08:28:35;;;;;;;26.80;22.60;;;;;;;9.11;100.00;102469.31;5022041;28;20430;-56
2023/04/08 08:31:02;;;;;;;27.13;21.55;;;;;;;9.10;100.00;102468.47;5017258;28;20076;-58
2023/04/08 08:33:27;;;;;;;26.45;21.08;;;;;;;9.09;100.00;102464.09;5024528;28;20065;-58
2023/04/08 08:35:53;;;;;;;26.05;21.35;;;;;;;9.13;100.00;102473.66;5020318;28;20482;-58
2023/04/08 08:38:18;;;;;;;28.15;22.88;;;;;;;9.19;100.00;102472.50;5022369;28;20022;-58
2023/04/08 08:40:44;;;;;;;29.13;22.80;;;;;;;9.22;100.00;102475.88;5025887;28;20044;-57
2023/04/08 08:43:10;;;;;;;27.77;22.10;;;;;;;9.23;100.00;102474.94;5046351;28;20040;-57
2023/04/08 08:45:39;;;;;;;29.05;22.92;;;;;;;9.28;100.00;102472.09;5039436;28;20492;-57
2023/04/08 08:48:05;;;;;;;;;;;;;;;9.43;100.00;102473.19;5017704;28;20399;-58
2023/04/08 08:50:31;;;;;;;25.40;20.23;;;;;;;9.32;100.00;102472.81;5019022;28;20700;-57
2023/04/08 08:52:57;;;;;;;26.30;21.92;;;;;;;9.33;100.00;102479.84;5017658;28;20037;-56
2023/04/08 08:55:22;;;;;;;27.55;21.60;;;;;;;9.42;100.00;102474.97;5031995;28;20506;-54
2023/04/08 08:57:50;;;;;;;25.80;21.55;;;;;;;9.51;100.00;102484.31;5056183;28;20032;-54
2023/04/08 09:00:17;;;;;;;28.50;22.37;;;;;;;9.60;100.00;102488.34;5035282;28;20024;-56
2023/04/08 09:02:42;;;;;;;25.67;21.08;;;;;;;9.65;100.00;102485.47;5020019;28;20041;-54
2023/04/08 09:05:08;;;;;;;28.77;22.98;;;;;;;9.69;100.00;102492.34;5018904;28;20034;-56
2023/04/08 09:07:40;;;;;;;26.05;22.08;;;;;;;9.75;100.00;102486.75;5030117;28;20062;-56
2023/04/08 09:10:06;;;;;;;30.80;23.30;;;;;;;9.80;100.00;102484.75;5020937;28;20111;-57
2023/04/08 09:12:32;;;;;;;33.67;24.85;;;;;;;9.89;100.00;102497.59;5026705;28;20136;-56
2023/04/08 09:15:06;;;;;;;28.52;23.20;;;;;;;9.93;100.00;102496.50;5023285;28;20200;-57
2023/04/08 09:17:38;;;;;;;33.92;26.40;;;;;;;9.99;100.00;102496.22;5027536;28;20124;-58
2023/04/08 09:20:08;;;;;;;33.05;25.73;;;;;;;10.06;100.00;102498.56;5026197;28;20025;-54
2023/04/08 09:22:53;;;;;;;32.83;24.33;;;;;;;10.06;100.00;102502.09;5031170;28;20057;-57
2023/04/08 09:25:27;;;;;;;31.42;24.80;;;;;;;10.17;100.00;102497.16;5027707;28;20035;-57
2023/04/08 09:27:53;;;;;;;30.58;24.52;;;;;;;10.20;100.00;102506.75;5023533;28;20477;-56
2023/04/08 09:30:20;;;;;;;28.90;24.10;;;;;;;10.24;99.65;102510.09;5011081;28;20025;-54
2023/04/08 09:32:47;;;;;;;30.98;23.40;;;;;;;10.25;98.31;102510.03;5031503;28;20044;-54
2023/04/08 09:35:12;;;;;;;27.35;23.08;;;;;;;10.24;97.38;102515.41;5028362;28;20493;-54
2023/04/08 09:37:38;;;;;;;27.08;22.40;;;;;;;10.25;98.46;102512.69;5023235;28;20054;-54
2023/04/08 09:40:04;;;;;;;27.15;23.70;;;;;;;10.30;99.50;102515.13;5022502;28;20405;-57
2023/04/08 09:42:30;;;;;;;28.88;23.50;;;;;;;10.34;99.73;102514.06;5026642;28;20033;-57
2023/04/08 09:44:57;;;;;;;31.85;26.60;;;;;;;10.32;99.08;102514.13;5023683;28;20037;-55
2023/04/08 09:47:28;;;;;;;30.13;24.75;;;;;;;10.29;99.57;102516.94;5023739;28;20057;-57
2023/04/08 09:50:02;;;;;;;27.33;23.50;;;;;;;10.32;98.82;102514.13;5030359;28;20403;-57
2023/04/08 09:52:45;;;;;;;26.50;22.88;;;;;;;10.40;99.75;102518.22;5026062;28;20564;-54
2023/04/08 09:55:13;;;;;;;27.45;23.23;;;;;;;10.39;98.36;102514.69;5024547;28;20060;-56
2023/04/08 09:58:00;;;;;;;24.85;22.15;;;;;;;10.46;98.47;102525.88;5020413;28;20038;-58
2023/04/08 10:00:33;;;;;;;25.00;21.98;;;;;;;10.46;96.85;102524.09;5027056;28;20544;-56
2023/04/08 10:03:39;;;;;;;24.80;21.48;;;;;;;10.55;96.51;102525.44;5024607;28;20049;-56
2023/04/08 10:06:07;;;;;;;25.60;22.55;;;;;;;10.50;96.79;102525.66;5022213;28;20021;-53
2023/04/08 10:08:34;;;;;;;24.65;21.88;;;;;;;10.50;95.07;102525.66;5029294;28;20049;-57
2023/04/08 10:10:59;;;;;;;23.83;20.73;;;;;;;10.55;95.18;102525.44;5031116;28;20081;-55
2023/04/08 10:13:27;;;;;;;23.85;21.25;;;;;;;10.59;95.69;102531.44;5017991;28;20061;-58
2023/04/08 10:16:23;;;;;;;24.48;21.83;;;;;;;10.63;96.00;102528.56;5030060;28;20025;-55
2023/04/08 10:18:51;;;;;;;23.13;20.63;;;;;;;10.64;95.95;102529.41;5020362;28;20125;-55
2023/04/08 10:21:36;;;;;;;24.60;22.00;;;;;;;10.73;97.06;102521.84;5022043;28;20326;-55
2023/04/08 10:24:06;;;;;;;23.25;20.75;;;;;;;10.69;93.90;102528.28;5025785;28;20485;-53
2023/04/08 10:26:37;;;;;;;24.48;21.67;;;;;;;10.77;94.25;102527.00;5027050;28;20022;-56
2023/04/08 10:29:17;;;;;;;25.95;22.42;;;;;;;10.89;96.56;102523.72;5034392;28;20033;-53
2023/04/08 10:31:49;;;;;;;25.30;22.33;;;;;;;10.92;96.22;102513.81;5019262;28;20061;-55
2023/04/08 10:34:26;;;;;;;25.20;22.45;;;;;;;11.01;94.96;102516.94;5020193;28;20058;-54
2023/04/08 10:36:52;;;;;;;24.17;21.02;;;;;;;11.02;92.25;102514.19;5024790;28;20049;-53
2023/04/08 10:39:18;;;;;;;25.58;22.38;;;;;;;11.24;94.83;102518.38;5015446;28;20042;-53
2023/04/08 10:41:44;;;;;;;24.17;21.50;;;;;;;11.42;94.61;102512.09;5022266;28;20060;-53
2023/04/08 10:44:20;;;;;;;23.33;20.77;;;;;;;11.61;94.70;102519.09;5031882;28;20037;-54
2023/04/08 10:46:48;;;;;;;22.35;19.95;;;;;;;11.60;92.51;102526.19;5027179;28;20025;-56
2023/04/08 10:49:14;;;;;;;25.17;21.30;;;;;;;11.71;91.52;102519.44;5022192;28;20033;-56
2023/04/08 10:51:41;;;;;;;22.63;20.23;;;;;;;11.80;89.49;102518.94;5027156;28;20112;-54
2023/04/08 10:54:07;;;;;;;23.00;20.60;;;;;;;11.94;88.48;102515.53;5022035;28;20049;-57
2023/04/08 10:56:34;;;;;;;22.38;19.98;;;;;;;12.15;89.24;102511.66;5024476;28;20146;-55
2023/04/08 10:58:59;;;;;;;23.17;20.77;;;;;;;12.27;85.99;102507.44;5023695;28;20080;-55
2023/04/08 11:01:25;;;;;;;21.65;19.17;;;;;;;12.41;83.29;102504.00;5020555;28;20049;-54
2023/04/08 11:03:51;;;;;;;22.10;19.77;;;;;;;12.64;84.94;102494.66;5028861;28;20083;-54
2023/04/08 11:06:16;;;;;;;22.35;20.13;;;;;;;12.73;84.81;102501.25;5025998;28;20073;-56
2023/04/08 11:08:43;;;;;;;22.20;19.88;;;;;;;12.82;85.61;102494.50;5018723;28;20068;-53